Time;durP1;ratioP1;P1;durP2;ratioP2;P2;SDS_P1;SDS_P2;PMS_P1;PMS_P2;Temp;Humidity;BMP_temperature;BMP_pressure;BME280_temperature;BME280_humidity;BME280_pressure;Samples;Min_cycle;Max_cycle;Signal;HPM_P1;HPM_P2
2023/03/03 00:01:32;;;;;;;18.23;9.17;;;8.30;41.10;;;;;;5089980;27;20563;-86
2023/03/03 00:04:00;;;;;;;16.53;9.70;;;8.20;41.20;;;;;;5104110;27;20441;-84
2023/03/03 00:06:29;;;;;;;12.60;8.40;;;8.30;41.70;;;;;;5070807;27;20453;-86
2023/03/03 00:08:56;;;;;;;12.90;9.57;;;8.30;41.80;;;;;;5087126;27;20457;-86
2023/03/03 00:11:23;;;;;;;16.40;9.77;;;8.30;42.00;;;;;;5059792;27;20982;-87
2023/03/03 00:13:52;;;;;;;14.80;9.03;;;8.30;41.70;;;;;;5088661;27;20485;-86
2023/03/03 00:16:24;;;;;;;18.00;8.73;;;8.20;41.20;;;;;;5079056;27;21176;-84
2023/03/03 00:18:53;;;;;;;15.93;9.40;;;8.20;42.00;;;;;;5080947;27;21252;-87
2023/03/03 00:21:28;;;;;;;19.53;10.20;;;8.10;42.00;;;;;;5070123;27;20472;-85
2023/03/03 00:23:58;;;;;;;16.03;9.70;;;7.90;42.50;;;;;;5079408;27;20537;-84
2023/03/03 00:26:32;;;;;;;21.07;12.20;;;7.90;42.60;;;;;;5070943;27;20545;-84
2023/03/03 00:29:00;;;;;;;20.23;9.90;;;7.90;42.60;;;;;;5065439;27;20438;-87
2023/03/03 00:31:33;;;;;;;18.93;8.50;;;7.90;42.50;;;;;;5077794;27;20466;-85
2023/03/03 00:34:19;;;;;;;13.80;8.27;;;8.00;42.20;;;;;;5065741;27;20459;-86
2023/03/03 00:36:49;;;;;;;15.73;9.80;;;8.00;41.90;;;;;;5095786;27;20434;-83
2023/03/03 00:39:24;;;;;;;25.50;12.73;;;8.00;41.90;;;;;;5085753;27;20451;-85
2023/03/03 00:41:51;;;;;;;46.50;18.57;;;8.00;42.00;;;;;;5077601;27;20890;-85
2023/03/03 00:44:35;;;;;;;69.10;30.30;;;7.90;42.80;;;;;;5079762;27;20443;-84
2023/03/03 00:47:29;;;;;;;36.93;19.00;;;8.00;42.20;;;;;;5066273;27;20546;-85
2023/03/03 00:50:22;;;;;;;29.70;15.23;;;7.90;42.10;;;;;;5054706;27;20454;-86
2023/03/03 00:53:00;;;;;;;30.97;16.83;;;7.90;42.50;;;;;;5094859;27;20476;-85
2023/03/03 00:55:27;;;;;;;45.70;20.80;;;7.80;42.30;;;;;;5062167;27;20457;-89
2023/03/03 00:57:54;;;;;;;37.03;17.17;;;7.80;42.40;;;;;;5107745;27;20519;-86
2023/03/03 01:00:25;;;;;;;26.93;14.87;;;7.80;42.30;;;;;;5086394;27;20442;-87
2023/03/03 01:02:52;;;;;;;22.30;12.03;;;7.30;42.30;;;;;;5080685;27;21054;-85
2023/03/03 01:05:22;;;;;;;20.47;10.93;;;7.20;43.00;;;;;;5082595;27;20434;-85
2023/03/03 01:07:49;;;;;;;22.27;11.00;;;7.30;42.90;;;;;;5063511;27;20449;-86
2023/03/03 01:10:17;;;;;;;24.43;11.83;;;7.40;42.90;;;;;;5071946;27;21043;-85
2023/03/03 01:12:44;;;;;;;21.73;10.87;;;7.40;43.00;;;;;;5060468;27;20856;-87
2023/03/03 01:15:13;;;;;;;22.93;10.37;;;7.40;42.60;;;;;;5078157;28;20467;-85
2023/03/03 01:17:40;;;;;;;26.00;11.30;;;7.40;41.60;;;;;;5085471;27;20439;-85
2023/03/03 01:20:10;;;;;;;15.73;9.20;;;7.20;43.00;;;;;;5087178;27;20461;-87
2023/03/03 01:22:38;;;;;;;19.13;8.70;;;7.20;43.50;;;;;;5059346;28;20474;-85
2023/03/03 01:25:06;;;;;;;20.03;9.87;;;7.20;43.60;;;;;;5087592;27;21032;-86
2023/03/03 01:27:34;;;;;;;17.40;9.60;;;7.20;43.50;;;;;;5094320;27;20887;-84
2023/03/03 01:30:01;;;;;;;15.57;8.77;;;7.20;43.50;;;;;;5078803;27;20455;-85
2023/03/03 01:32:28;;;;;;;22.70;10.50;;;7.20;43.30;;;;;;5078360;28;20498;-86
2023/03/03 01:34:56;;;;;;;19.30;9.80;;;7.10;43.60;;;;;;5078168;27;20987;-85
2023/03/03 01:37:23;;;;;;;16.93;9.03;;;7.20;43.60;;;;;;5076181;28;20447;-85
2023/03/03 01:39:52;;;;;;;14.70;8.40;;;7.20;44.10;;;;;;5067492;27;20439;-85
2023/03/03 01:42:19;;;;;;;16.30;9.13;;;7.20;44.40;;;;;;5094313;28;20479;-86
2023/03/03 01:44:47;;;;;;;17.80;9.70;;;7.10;44.10;;;;;;5076410;27;20442;-85
2023/03/03 01:47:15;;;;;;;17.30;9.27;;;7.20;44.20;;;;;;5069117;27;20982;-85
2023/03/03 01:49:48;;;;;;;12.40;6.50;;;7.20;43.70;;;;;;5060902;27;20574;-86
2023/03/03 01:52:21;;;;;;;17.43;8.60;;;7.10;43.80;;;;;;5096419;27;20490;-86
2023/03/03 01:54:54;;;;;;;21.17;9.10;;;6.90;43.10;;;;;;5075804;27;20516;-86
2023/03/03 01:57:27;;;;;;;16.00;9.80;;;6.70;44.50;;;;;;5097144;27;20447;-86
2023/03/03 01:59:56;;;;;;;15.87;8.60;;;6.70;44.80;;;;;;5068433;28;20443;-86
2023/03/03 02:02:25;;;;;;;16.53;8.13;;;6.70;45.40;;;;;;5067773;27;20490;-87
2023/03/03 02:04:52;;;;;;;20.00;10.30;;;6.70;45.30;;;;;;5077536;27;20434;-85
2023/03/03 02:07:21;;;;;;;17.00;7.97;;;6.80;45.30;;;;;;5088204;27;20458;-86
2023/03/03 02:09:56;;;;;;;19.40;10.17;;;6.70;44.20;;;;;;5111469;27;20468;-86
2023/03/03 02:12:30;;;;;;;16.70;8.00;;;6.60;44.60;;;;;;5067399;28;20504;-86
2023/03/03 02:14:57;;;;;;;14.43;8.73;;;6.50;44.80;;;;;;5075641;27;20822;-86
2023/03/03 02:17:24;;;;;;;17.27;9.07;;;6.40;44.90;;;;;;5057849;28;20538;-86
2023/03/03 02:19:59;;;;;;;13.20;7.97;;;6.40;45.80;;;;;;5070000;27;20518;-85
2023/03/03 02:22:34;;;;;;;18.87;8.47;;;6.40;45.50;;;;;;5095250;27;20523;-85
2023/03/03 02:25:07;;;;;;;14.80;8.43;;;6.60;45.40;;;;;;5085718;27;22073;-85
2023/03/03 02:27:36;;;;;;;15.57;7.90;;;6.60;45.00;;;;;;5093877;27;20806;-86
2023/03/03 02:30:16;;;;;;;18.57;9.23;;;6.60;44.40;;;;;;5069607;27;20439;-86
2023/03/03 02:32:43;;;;;;;16.93;8.63;;;6.10;45.50;;;;;;5067235;27;20481;-85
2023/03/03 02:35:29;;;;;;;19.63;9.30;;;6.00;46.10;;;;;;5081260;27;20457;-88
2023/03/03 02:37:59;;;;;;;14.03;7.63;;;6.10;46.60;;;;;;5078796;28;20766;-85
2023/03/03 02:40:31;;;;;;;16.57;8.80;;;5.90;47.20;;;;;;5076264;28;20472;-86
2023/03/03 02:43:02;;;;;;;16.90;8.50;;;6.10;46.90;;;;;;5070412;28;20983;-86
2023/03/03 02:45:29;;;;;;;17.33;9.00;;;6.30;46.70;;;;;;5086158;27;20545;-82
2023/03/03 02:47:56;;;;;;;16.07;9.10;;;6.40;45.50;;;;;;5078356;27;20447;-85
2023/03/03 02:50:23;;;;;;;17.63;9.10;;;6.30;44.70;;;;;;5068479;27;20446;-87
2023/03/03 02:52:50;;;;;;;18.80;8.97;;;6.10;45.60;;;;;;5067323;27;20474;-85
2023/03/03 02:55:17;;;;;;;21.00;8.73;;;6.00;46.40;;;;;;5087701;27;20458;-88
2023/03/03 02:57:44;;;;;;;22.23;8.23;;;6.10;46.60;;;;;;5094194;27;20438;-85
2023/03/03 03:00:13;;;;;;;18.50;8.50;;;6.20;46.50;;;;;;5070076;27;20451;-87
2023/03/03 03:02:40;;;;;;;15.93;8.80;;;6.20;46.20;;;;;;5093872;28;20591;-86
2023/03/03 03:05:08;;;;;;;12.50;8.03;;;6.30;46.10;;;;;;5071802;28;20507;-85
2023/03/03 03:07:35;;;;;;;13.57;8.83;;;6.30;46.00;;;;;;5086847;28;20947;-87
2023/03/03 03:10:03;;;;;;;19.73;8.83;;;6.30;45.70;;;;;;5078672;28;20916;-85
2023/03/03 03:12:32;;;;;;;18.77;9.40;;;6.30;46.10;;;;;;5086493;28;20987;-85
2023/03/03 03:15:01;;;;;;;17.87;9.67;;;6.20;45.80;;;;;;5077878;28;20486;-85
2023/03/03 03:17:30;;;;;;;23.47;10.30;;;6.30;45.60;;;;;;5095317;28;20442;-85
2023/03/03 03:19:59;;;;;;;18.00;8.17;;;6.30;45.40;;;;;;5062846;28;20524;-85
2023/03/03 03:22:26;;;;;;;18.20;8.83;;;6.30;45.60;;;;;;5077848;28;20470;-88
2023/03/03 03:24:53;;;;;;;19.40;9.10;;;6.30;45.60;;;;;;5092262;28;20446;-86
2023/03/03 03:27:22;;;;;;;16.17;8.83;;;6.30;45.70;;;;;;5068761;28;20951;-85
2023/03/03 03:29:49;;;;;;;16.57;8.63;;;6.30;45.80;;;;;;5086054;28;20481;-85
2023/03/03 03:32:18;;;;;;;18.37;9.80;;;6.30;45.80;;;;;;5068848;28;20899;-86
2023/03/03 03:34:46;;;;;;;19.23;8.67;;;6.30;45.80;;;;;;5087641;28;20480;-85
2023/03/03 03:37:13;;;;;;;16.07;9.23;;;6.30;45.70;;;;;;5064936;28;21243;-86
2023/03/03 03:39:41;;;;;;;25.43;9.30;;;6.20;45.50;;;;;;5067565;28;20971;-85
2023/03/03 03:42:08;;;;;;;16.63;8.40;;;6.10;46.30;;;;;;5067542;28;20458;-85
2023/03/03 03:44:35;;;;;;;30.43;10.30;;;6.00;46.40;;;;;;5068155;28;20435;-85
2023/03/03 03:47:02;;;;;;;18.10;9.33;;;5.90;46.20;;;;;;5093202;28;20454;-86
2023/03/03 03:49:29;;;;;;;16.90;8.90;;;5.80;46.90;;;;;;5094585;28;20537;-87
2023/03/03 03:51:59;;;;;;;13.30;8.37;;;5.70;47.20;;;;;;5074193;28;20483;-86
2023/03/03 03:54:30;;;;;;;18.00;9.70;;;5.70;46.70;;;;;;5077853;28;20447;-85
2023/03/03 03:56:57;;;;;;;15.03;8.63;;;5.70;46.90;;;;;;5092761;28;21028;-86
2023/03/03 03:59:24;;;;;;;14.53;8.83;;;5.80;46.80;;;;;;5068944;28;20824;-84
2023/03/03 04:01:52;;;;;;;19.90;9.63;;;5.80;46.80;;;;;;5083631;28;20470;-85
2023/03/03 04:04:21;;;;;;;14.77;8.77;;;5.80;46.80;;;;;;5071431;28;20446;-84
2023/03/03 04:06:48;;;;;;;18.37;9.23;;;5.70;47.00;;;;;;5091848;28;22125;-86
2023/03/03 04:09:16;;;;;;;17.90;8.93;;;5.80;46.60;;;;;;5062738;28;20918;-83
2023/03/03 04:11:44;;;;;;;15.47;8.57;;;5.90;46.20;;;;;;5073913;28;20583;-86
2023/03/03 04:14:13;;;;;;;24.03;9.40;;;5.90;46.20;;;;;;5104217;28;20443;-85
2023/03/03 04:16:40;;;;;;;18.27;9.93;;;5.90;46.20;;;;;;5086868;28;20461;-86
2023/03/03 04:19:07;;;;;;;12.30;8.10;;;5.90;46.30;;;;;;5064753;27;20457;-85
2023/03/03 04:21:36;;;;;;;12.97;8.43;;;5.90;46.50;;;;;;5069517;27;20529;-85
2023/03/03 04:24:03;;;;;;;17.63;8.80;;;5.90;46.50;;;;;;5077841;27;20963;-84
2023/03/03 04:26:32;;;;;;;22.03;8.77;;;5.80;46.30;;;;;;5077733;27;20632;-86
2023/03/03 04:29:01;;;;;;;16.13;8.57;;;5.80;46.70;;;;;;5105125;27;20438;-86
2023/03/03 04:31:29;;;;;;;18.10;8.80;;;5.70;47.20;;;;;;5071656;27;20855;-85
2023/03/03 04:33:56;;;;;;;14.70;8.50;;;5.70;47.20;;;;;;5064449;27;20797;-88
2023/03/03 04:36:24;;;;;;;17.30;9.17;;;5.70;46.80;;;;;;5072575;27;20496;-86
2023/03/03 04:38:51;;;;;;;12.03;8.20;;;5.80;46.70;;;;;;5064779;27;20443;-87
2023/03/03 04:41:19;;;;;;;18.83;9.37;;;5.80;46.70;;;;;;5079296;27;20459;-87
2023/03/03 04:43:47;;;;;;;18.03;9.60;;;5.70;47.00;;;;;;5078066;27;20499;-85
2023/03/03 04:46:14;;;;;;;16.13;8.80;;;5.70;47.10;;;;;;5082646;27;20439;-86
2023/03/03 04:48:41;;;;;;;15.23;9.00;;;5.60;47.30;;;;;;5072680;27;20468;-86
2023/03/03 04:51:10;;;;;;;18.73;10.30;;;5.60;47.50;;;;;;5088953;27;20472;-86
2023/03/03 04:53:37;;;;;;;23.17;10.67;;;5.70;47.00;;;;;;5085206;27;20460;-87
2023/03/03 04:56:06;;;;;;;20.43;9.77;;;5.60;46.90;;;;;;5088934;27;20455;-87
2023/03/03 04:58:33;;;;;;;24.73;11.90;;;5.40;47.30;;;;;;5083447;27;20442;-86
2023/03/03 05:01:03;;;;;;;22.80;10.97;;;5.50;47.50;;;;;;5071038;27;20472;-86
2023/03/03 05:03:33;;;;;;;18.93;10.63;;;5.50;47.50;;;;;;5082319;27;20449;-86
2023/03/03 05:06:00;;;;;;;21.83;11.50;;;5.50;47.20;;;;;;5085313;28;20977;-86
2023/03/03 05:08:27;;;;;;;20.23;11.87;;;5.50;47.20;;;;;;5067557;27;20550;-86
2023/03/03 05:10:54;;;;;;;20.03;9.57;;;5.50;47.20;;;;;;5098577;27;20458;-86
2023/03/03 05:13:22;;;;;;;14.57;9.50;;;5.50;46.90;;;;;;5092602;27;20446;-85
2023/03/03 05:15:54;;;;;;;17.97;10.20;;;5.40;46.90;;;;;;5087848;27;20489;-86
2023/03/03 05:18:23;;;;;;;17.70;9.03;;;5.40;47.10;;;;;;5085369;27;21066;-87
2023/03/03 05:20:50;;;;;;;17.50;9.83;;;5.30;47.40;;;;;;5078841;27;21017;-84
2023/03/03 05:23:18;;;;;;;16.53;9.80;;;5.20;47.80;;;;;;5086227;27;20483;-86
2023/03/03 05:25:45;;;;;;;15.53;8.80;;;5.20;47.30;;;;;;5082724;27;20806;-86
2023/03/03 05:28:12;;;;;;;17.90;8.70;;;5.20;46.90;;;;;;5077972;27;21366;-85
2023/03/03 05:30:39;;;;;;;22.87;9.90;;;5.00;47.90;;;;;;5083362;27;20448;-86
2023/03/03 05:33:07;;;;;;;18.30;10.13;;;5.00;48.40;;;;;;5081820;27;20459;-85
2023/03/03 05:35:35;;;;;;;20.47;9.20;;;5.10;48.20;;;;;;5110655;27;20474;-85
2023/03/03 05:38:02;;;;;;;19.30;9.97;;;5.10;47.60;;;;;;5084490;27;20453;-85
2023/03/03 05:40:29;;;;;;;14.87;9.50;;;5.10;47.60;;;;;;5077416;27;21010;-84
2023/03/03 05:42:56;;;;;;;24.33;11.10;;;5.20;47.40;;;;;;5079109;27;20458;-85
2023/03/03 05:45:23;;;;;;;32.00;15.17;;;5.10;47.70;;;;;;5066032;27;20451;-84
2023/03/03 05:47:51;;;;;;;26.30;14.30;;;5.00;48.30;;;;;;5098039;27;20904;-86
2023/03/03 05:50:18;;;;;;;26.27;13.63;;;5.00;47.50;;;;;;5067824;27;20451;-86
2023/03/03 05:52:49;;;;;;;25.03;13.10;;;4.90;47.50;;;;;;5080417;27;20511;-84
2023/03/03 05:55:16;;;;;;;24.27;13.00;;;4.90;48.40;;;;;;5072509;27;20459;-85
2023/03/03 05:57:44;;;;;;;19.43;10.17;;;5.00;48.00;;;;;;5080573;27;20504;-85
2023/03/03 06:00:12;;;;;;;25.30;11.67;;;5.10;47.70;;;;;;5078970;27;20454;-86
2023/03/03 06:02:39;;;;;;;18.03;11.67;;;5.00;48.00;;;;;;5096833;27;20466;-85
2023/03/03 06:05:07;;;;;;;19.30;10.97;;;5.00;47.60;;;;;;5063213;27;20533;-85
2023/03/03 06:07:34;;;;;;;17.23;11.67;;;5.00;47.40;;;;;;5076926;27;20430;-85
2023/03/03 06:10:03;;;;;;;12.90;9.20;;;5.10;47.60;;;;;;5076773;27;20430;-85
2023/03/03 06:12:32;;;;;;;28.50;8.80;;;5.10;47.50;;;;;;5081642;28;21016;-85
2023/03/03 06:14:59;;;;;;;18.87;10.23;;;5.10;47.40;;;;;;5071916;27;20446;-84
2023/03/03 06:17:26;;;;;;;22.33;9.40;;;5.10;47.40;;;;;;5090768;27;20489;-85
2023/03/03 06:19:52;;;;;;;21.20;10.30;;;5.10;47.20;;;;;;5120876;27;20466;-85
2023/03/03 06:22:19;;;;;;;20.83;11.20;;;5.10;47.20;;;;;;5080175;27;20481;-85
2023/03/03 06:24:46;;;;;;;20.63;10.67;;;5.10;47.30;;;;;;5076195;27;20469;-87
2023/03/03 06:27:15;;;;;;;21.90;10.97;;;5.00;47.50;;;;;;5084362;27;20476;-86
2023/03/03 06:29:41;;;;;;;22.10;11.37;;;4.90;48.10;;;;;;5095185;27;20462;-84
2023/03/03 06:32:08;;;;;;;17.93;10.60;;;4.70;49.70;;;;;;5104011;27;20482;-85
2023/03/03 06:34:35;;;;;;;21.60;10.43;;;4.80;49.80;;;;;;5072450;27;20947;-85
2023/03/03 06:37:02;;;;;;;18.10;10.57;;;4.90;49.20;;;;;;5122922;27;20470;-84
2023/03/03 06:39:29;;;;;;;18.03;9.83;;;4.90;48.80;;;;;;5100543;27;20453;-85
2023/03/03 06:41:56;;;;;;;19.47;11.27;;;4.90;48.70;;;;;;5118033;27;20470;-85
2023/03/03 06:44:25;;;;;;;24.27;9.87;;;5.00;48.70;;;;;;5122899;27;20455;-86
2023/03/03 06:46:52;;;;;;;21.10;11.17;;;5.00;48.50;;;;;;5120512;27;20453;-85
2023/03/03 06:49:19;;;;;;;32.83;14.83;;;5.10;48.50;;;;;;5125805;27;20499;-86
2023/03/03 06:51:46;;;;;;;41.73;18.17;;;5.10;48.50;;;;;;5124253;27;20461;-85
2023/03/03 06:54:15;;;;;;;45.13;22.40;;;4.90;49.20;;;;;;5126454;27;20449;-85
2023/03/03 06:56:43;;;;;;;43.57;20.97;;;4.80;50.00;;;;;;5105999;27;20473;-86
2023/03/03 06:59:13;;;;;;;38.50;17.23;;;4.80;50.00;;;;;;5124511;27;20454;-88
2023/03/03 07:01:43;;;;;;;31.13;16.17;;;4.80;50.40;;;;;;5085673;27;20504;-86
2023/03/03 07:04:24;;;;;;;27.60;15.97;;;4.80;50.60;;;;;;5121188;27;20454;-85
2023/03/03 07:06:51;;;;;;;33.77;16.60;;;4.90;50.00;;;;;;5103702;28;20951;-85
2023/03/03 07:09:22;;;;;;;38.83;17.60;;;5.00;49.70;;;;;;5069494;27;21037;-87
2023/03/03 07:11:50;;;;;;;43.37;19.17;;;5.10;49.80;;;;;;5076989;28;20887;-85
2023/03/03 07:14:19;;;;;;;32.93;17.73;;;5.10;49.40;;;;;;5077495;28;20849;-85
2023/03/03 07:16:53;;;;;;;27.80;16.40;;;5.00;49.50;;;;;;5067935;28;20486;-84
2023/03/03 07:19:27;;;;;;;27.50;15.90;;;5.10;49.90;;;;;;5101237;28;20445;-85
2023/03/03 07:21:54;;;;;;;28.07;16.73;;;5.20;49.70;;;;;;5077642;28;20465;-87
2023/03/03 07:24:27;;;;;;;39.53;14.43;;;5.20;49.50;;;;;;5110230;28;20525;-85
2023/03/03 07:26:59;;;;;;;30.07;12.77;;;5.20;49.70;;;;;;5071218;28;21516;-86
2023/03/03 07:29:29;;;;;;;19.07;11.47;;;5.20;49.70;;;;;;5096835;28;21307;-85
2023/03/03 07:31:58;;;;;;;28.37;15.10;;;5.30;49.90;;;;;;5081950;28;21038;-85
2023/03/03 07:34:34;;;;;;;34.93;15.13;;;5.20;49.90;;;;;;5065344;28;20799;-86
2023/03/03 07:37:05;;;;;;;24.33;13.00;;;5.30;49.90;;;;;;5080048;28;20473;-86
2023/03/03 07:39:35;;;;;;;21.00;12.47;;;5.30;50.10;;;;;;5060360;28;21101;-85
2023/03/03 07:42:16;;;;;;;18.77;11.50;;;5.30;50.70;;;;;;5064059;28;20478;-87
2023/03/03 07:44:50;;;;;;;23.37;12.20;;;5.30;50.40;;;;;;5059046;28;20438;-87
2023/03/03 07:47:22;;;;;;;17.17;11.00;;;5.40;50.10;;;;;;5073788;28;20875;-86
2023/03/03 07:49:52;;;;;;;22.03;11.60;;;5.30;50.40;;;;;;5061862;28;20431;-87
2023/03/03 07:52:26;;;;;;;24.77;13.50;;;5.40;50.10;;;;;;5072601;28;20462;-86
2023/03/03 07:54:54;;;;;;;23.30;11.53;;;5.30;50.40;;;;;;5072779;27;20442;-86
2023/03/03 07:57:25;;;;;;;19.47;11.50;;;5.30;51.00;;;;;;5080109;27;20547;-87
2023/03/03 07:59:55;;;;;;;22.30;11.90;;;5.30;50.90;;;;;;5076510;27;20937;-86
2023/03/03 08:02:54;;;;;;;20.17;11.40;;;5.00;51.70;;;;;;5069666;27;20470;-87
2023/03/03 08:05:34;;;;;;;29.73;10.77;;;5.10;52.20;;;;;;5069707;27;20530;-87
2023/03/03 08:08:29;;;;;;;18.37;10.80;;;5.40;51.30;;;;;;5108908;27;20449;-86
2023/03/03 08:10:57;;;;;;;17.23;9.67;;;5.50;50.80;;;;;;5077224;27;20797;-86
2023/03/03 08:13:28;;;;;;;27.17;10.70;;;5.50;50.30;;;;;;5077934;28;20454;-86
2023/03/03 08:16:00;;;;;;;20.83;12.00;;;5.60;50.60;;;;;;5077677;27;20457;-88
2023/03/03 08:18:34;;;;;;;19.73;11.60;;;5.60;50.70;;;;;;5097272;27;20488;-86
2023/03/03 08:21:02;;;;;;;20.80;10.80;;;5.70;50.40;;;;;;5081134;27;20470;-85
2023/03/03 08:23:29;;;;;;;22.93;11.10;;;5.60;50.20;;;;;;5111751;27;20443;-86
2023/03/03 08:25:56;;;;;;;22.60;11.80;;;5.60;50.40;;;;;;5062996;27;20465;-86
2023/03/03 08:28:23;;;;;;;20.30;11.97;;;5.60;50.50;;;;;;5082200;27;21147;-86
2023/03/03 08:30:51;;;;;;;24.50;13.67;;;5.40;51.30;;;;;;5089305;27;20503;-86
2023/03/03 08:33:19;;;;;;;28.10;12.77;;;5.40;52.10;;;;;;5061903;27;20473;-86
2023/03/03 08:35:47;;;;;;;25.17;13.00;;;5.50;52.40;;;;;;5068527;27;20447;-87
2023/03/03 08:38:17;;;;;;;26.20;14.93;;;5.60;52.50;;;;;;5076590;27;20975;-87
2023/03/03 08:40:44;;;;;;;32.53;15.30;;;5.70;51.90;;;;;;5059551;27;20541;-87
2023/03/03 08:43:15;;;;;;;19.87;13.23;;;5.90;51.80;;;;;;5091237;27;20469;-87
2023/03/03 08:45:43;;;;;;;35.83;16.37;;;6.00;51.80;;;;;;5108612;27;20439;-86
2023/03/03 08:48:10;;;;;;;30.40;15.07;;;6.00;52.10;;;;;;5082867;27;20445;-87
2023/03/03 08:50:38;;;;;;;32.63;15.13;;;6.00;52.00;;;;;;5065507;27;20782;-88
2023/03/03 08:53:07;;;;;;;36.43;15.63;;;6.00;52.20;;;;;;5057481;27;20457;-86
2023/03/03 08:55:34;;;;;;;33.83;15.70;;;6.10;52.30;;;;;;5098549;27;20763;-86
2023/03/03 08:58:01;;;;;;;29.80;14.70;;;6.30;52.10;;;;;;5083045;27;20542;-86
2023/03/03 09:00:28;;;;;;;35.70;18.40;;;6.40;51.60;;;;;;5079156;27;20895;-87
2023/03/03 09:02:55;;;;;;;29.97;14.80;;;6.40;51.50;;;;;;5065497;27;20478;-87
2023/03/03 09:05:23;;;;;;;33.67;15.87;;;6.60;51.40;;;;;;5083961;28;20488;-86
2023/03/03 09:07:51;;;;;;;26.13;14.77;;;6.60;51.50;;;;;;5093070;27;20485;-86
2023/03/03 09:10:26;;;;;;;28.27;15.57;;;6.60;50.90;;;;;;5092534;27;20472;-85
2023/03/03 09:12:57;;;;;;;34.17;15.40;;;6.60;51.30;;;;;;5116972;27;20902;-86
2023/03/03 09:15:25;;;;;;;41.17;16.70;;;6.40;51.90;;;;;;5065462;27;20455;-86
2023/03/03 09:17:53;;;;;;;33.83;16.50;;;6.40;52.60;;;;;;5065848;27;20462;-86
2023/03/03 09:20:31;;;;;;;28.73;15.03;;;6.60;52.20;;;;;;5076379;27;20453;-87
2023/03/03 09:22:58;;;;;;;30.20;16.20;;;6.70;52.10;;;;;;5085267;27;20915;-86
2023/03/03 09:25:33;;;;;;;29.90;16.20;;;6.80;52.10;;;;;;5110061;27;20562;-88
2023/03/03 09:28:01;;;;;;;33.33;15.80;;;6.50;52.10;;;;;;5082195;27;20922;-86
2023/03/03 09:30:39;;;;;;;31.10;15.70;;;6.50;52.50;;;;;;5059986;27;20794;-86
2023/03/03 09:33:27;;;;;;;37.57;18.87;;;6.70;52.30;;;;;;5074471;27;20914;-87
2023/03/03 09:36:01;;;;;;;26.43;14.03;;;6.90;52.20;;;;;;5067545;27;20446;-88
2023/03/03 09:38:30;;;;;;;27.90;14.73;;;7.10;51.80;;;;;;5076385;27;21012;-88
2023/03/03 09:41:34;;;;;;;29.10;14.87;;;7.30;51.20;;;;;;5058777;27;20461;-87
2023/03/03 09:44:16;;;;;;;31.27;16.17;;;7.50;50.70;;;;;;5076006;27;20458;-88
2023/03/03 09:46:54;;;;;;;23.87;13.40;;;7.50;50.90;;;;;;5066736;27;20747;-88
2023/03/03 09:49:31;;;;;;;32.60;14.80;;;7.60;50.50;;;;;;5086602;27;20433;-88
2023/03/03 09:52:18;;;;;;;26.47;14.67;;;7.80;50.30;;;;;;5099264;27;20865;-88
2023/03/03 09:55:01;;;;;;;32.13;14.97;;;8.10;49.70;;;;;;5082353;27;20450;-88
2023/03/03 09:57:41;;;;;;;33.70;16.70;;;8.30;49.00;;;;;;5064155;27;20994;-89
2023/03/03 10:00:33;;;;;;;33.50;14.53;;;8.60;48.40;;;;;;5086331;27;20452;-89
2023/03/03 10:03:40;;;;;;;40.13;15.97;;;8.70;48.20;;;;;;5071133;27;20794;-89
2023/03/03 10:06:14;;;;;;;32.37;14.77;;;8.70;47.60;;;;;;5054959;27;21043;-88
2023/03/03 10:08:56;;;;;;;21.70;11.50;;;8.60;47.90;;;;;;5074447;27;20438;-89
2023/03/03 10:11:26;;;;;;;27.43;14.43;;;8.70;47.20;;;;;;5086755;27;20482;-88
2023/03/03 10:14:17;;;;;;;31.87;15.90;;;8.80;47.90;;;;;;5082280;27;20462;-87
2023/03/03 10:17:04;;;;;;;27.63;13.77;;;8.90;47.00;;;;;;5087953;27;20818;-89
2023/03/03 10:19:39;;;;;;;25.67;14.27;;;9.10;47.40;;;;;;5092112;27;20500;-88
2023/03/03 10:22:19;;;;;;;24.90;12.90;;;9.10;47.00;;;;;;5066779;27;20465;-88
2023/03/03 10:25:02;;;;;;;23.57;13.43;;;9.20;47.10;;;;;;5092102;27;20445;-91
2023/03/03 10:27:44;;;;;;;29.53;15.37;;;9.30;46.70;;;;;;5090814;27;20490;-90
2023/03/03 10:30:21;;;;;;;33.70;17.83;;;9.40;46.70;;;;;;5083492;27;20453;-88
2023/03/03 10:32:56;;;;;;;29.93;14.47;;;9.70;46.40;;;;;;5059939;27;20476;-87
2023/03/03 10:35:54;;;;;;;23.83;12.63;;;9.60;46.20;;;;;;5088544;27;20823;-87
2023/03/03 10:38:32;;;;;;;29.07;13.80;;;9.60;46.00;;;;;;5060889;27;20474;-88
2023/03/03 10:41:13;;;;;;;26.27;12.57;;;9.70;45.90;;;;;;5093165;28;20455;-89
2023/03/03 10:44:17;;;;;;;26.03;12.87;;;9.90;45.10;;;;;;5069598;27;20467;-87
2023/03/03 10:47:05;;;;;;;22.70;12.90;;;10.00;44.50;;;;;;5064848;28;20472;-88
2023/03/03 10:49:56;;;;;;;30.23;15.70;;;10.10;44.30;;;;;;5102060;27;20450;-88
2023/03/03 10:52:33;;;;;;;29.10;14.20;;;10.50;44.00;;;;;;5105264;27;20462;-87
2023/03/03 10:55:27;;;;;;;27.70;14.70;;;10.60;43.20;;;;;;5070117;27;20550;-88
2023/03/03 10:58:33;;;;;;;31.17;16.33;;;10.70;43.20;;;;;;5075677;27;20826;-89
2023/03/03 11:01:09;;;;;;;32.17;15.73;;;10.90;43.20;;;;;;4992554;28;20594;-87
2023/03/03 11:04:13;;;;;;;35.63;16.63;;;11.00;42.20;;;;;;5011660;28;20583;-87
2023/03/03 11:06:45;;;;;;;26.60;16.63;;;11.10;42.70;;;;;;5041416;28;20454;-85
2023/03/03 11:09:24;;;;;;;29.97;16.27;;;11.40;42.50;;;;;;5084639;28;20447;-87
2023/03/03 11:11:57;;;;;;;29.30;16.23;;;11.40;41.80;;;;;;5081293;27;20878;-89
2023/03/03 11:14:33;;;;;;;32.37;15.97;;;11.30;41.80;;;;;;5081589;28;20459;-87
2023/03/03 11:17:05;;;;;;;28.93;15.63;;;11.40;41.80;;;;;;5083783;28;20499;-87
2023/03/03 11:19:54;;;;;;;34.20;18.60;;;11.30;41.70;;;;;;5060469;28;20459;-88
2023/03/03 11:22:42;;;;;;;30.57;17.23;;;11.50;41.90;;;;;;5061919;28;21045;-87
2023/03/03 11:25:18;;;;;;;27.97;15.10;;;11.70;42.20;;;;;;5115146;28;20786;-88
2023/03/03 11:28:00;;;;;;;21.10;13.50;;;11.80;41.50;;;;;;5088746;27;20450;-85
2023/03/03 11:30:49;;;;;;;25.50;14.30;;;11.60;40.90;;;;;;5071156;27;20449;-86
2023/03/03 11:33:22;;;;;;;27.13;14.17;;;11.40;41.90;;;;;;5070741;27;20446;-86
2023/03/03 11:36:02;;;;;;;32.00;14.63;;;12.00;40.70;;;;;;5091237;27;20449;-87
2023/03/03 11:38:56;;;;;;;25.30;14.20;;;12.30;40.00;;;;;;5090092;28;20812;-86
2023/03/03 11:41:31;;;;;;;26.27;14.90;;;12.50;39.60;;;;;;5084601;27;20461;-87
2023/03/03 11:44:06;;;;;;;25.70;14.17;;;12.70;39.10;;;;;;5084886;27;20535;-88
2023/03/03 11:46:39;;;;;;;23.13;14.00;;;12.80;39.30;;;;;;5073970;27;20462;-88
2023/03/03 11:49:11;;;;;;;29.60;13.97;;;12.60;38.80;;;;;;5093493;27;20443;-86
2023/03/03 11:51:53;;;;;;;24.50;12.67;;;12.40;39.00;;;;;;5079656;27;20475;-87
2023/03/03 11:54:27;;;;;;;27.67;14.90;;;12.70;39.00;;;;;;5083985;27;21362;-88
2023/03/03 11:57:01;;;;;;;30.63;14.40;;;13.10;38.60;;;;;;5075167;27;20454;-87
2023/03/03 11:59:42;;;;;;;28.03;15.33;;;13.20;37.80;;;;;;5103786;27;20457;-90
2023/03/03 12:02:24;;;;;;;22.93;12.40;;;13.40;38.20;;;;;;5076740;27;20460;-87
2023/03/03 12:04:55;;;;;;;23.10;13.07;;;13.40;37.10;;;;;;5075983;27;20449;-86
2023/03/03 12:07:30;;;;;;;28.97;12.97;;;13.50;37.30;;;;;;5079811;27;20464;-88
2023/03/03 12:10:08;;;;;;;25.10;12.90;;;13.40;36.50;;;;;;5076485;27;20457;-88
2023/03/03 12:12:41;;;;;;;22.57;12.70;;;13.70;37.60;;;;;;5067926;27;20474;-88
2023/03/03 12:15:19;;;;;;;27.10;14.47;;;13.70;36.30;;;;;;5094420;27;20446;-88
2023/03/03 12:17:56;;;;;;;25.87;13.50;;;13.60;36.30;;;;;;5089946;27;20506;-88
2023/03/03 12:20:28;;;;;;;22.00;12.87;;;14.00;36.50;;;;;;5075899;27;20469;-88
2023/03/03 12:23:17;;;;;;;26.10;12.87;;;14.10;36.10;;;;;;5076880;27;20466;-89
2023/03/03 12:25:47;;;;;;;21.27;12.90;;;14.50;36.00;;;;;;5105730;27;20514;-88
2023/03/03 12:28:18;;;;;;;19.97;11.93;;;14.80;35.30;;;;;;5071423;27;20442;-88
2023/03/03 12:31:07;;;;;;;23.67;14.20;;;14.60;34.30;;;;;;5101487;27;20854;-89
2023/03/03 12:33:50;;;;;;;31.53;18.07;;;14.20;35.30;;;;;;5076147;27;20450;-88
2023/03/03 12:36:30;;;;;;;32.17;14.03;;;14.20;35.00;;;;;;5095123;27;20450;-88
2023/03/03 12:39:06;;;;;;;24.40;13.07;;;14.20;35.10;;;;;;5086542;27;20465;-87
2023/03/03 12:41:37;;;;;;;28.23;13.20;;;14.40;35.10;;;;;;5094274;27;20478;-89
2023/03/03 12:44:13;;;;;;;25.33;12.90;;;14.70;34.60;;;;;;5071689;27;20973;-88
2023/03/03 12:46:46;;;;;;;93.43;37.67;;;14.90;33.30;;;;;;5076325;27;20455;-88
2023/03/03 12:49:13;;;;;;;24.67;14.53;;;14.70;33.50;;;;;;5095779;27;20452;-89
2023/03/03 12:51:53;;;;;;;22.53;12.10;;;15.00;33.90;;;;;;5076125;28;20522;-88
2023/03/03 12:54:45;;;;;;;26.13;13.60;;;15.30;33.50;;;;;;5092268;27;20510;-89
2023/03/03 12:57:21;;;;;;;27.63;15.43;;;15.30;33.40;;;;;;5083616;27;20898;-88
2023/03/03 13:00:02;;;;;;;24.13;13.70;;;15.50;33.50;;;;;;5094069;27;20442;-89
2023/03/03 13:02:43;;;;;;;22.40;12.40;;;15.80;33.80;;;;;;5064295;27;20464;-90
2023/03/03 13:05:20;;;;;;;26.27;13.53;;;15.70;32.60;;;;;;5090592;27;20459;-89